Kwajalein/Bucholz, Marshall Islands
Current Conditions -  °F | °C
As of 8:00 AM on Saturday 01 Nov 2014 (Local Time) from PKWA Reporting Station
Moderate Rain Moderate Rain  
Wind Chill: 81°   Ceiling: 3400
Heat Index: 86°   Visibility: 3mi
Dew Point: 74°   Wind: 16mph
Humidity: 81%   Direction: 80°E
Pressure: 29.84"   Gusts: 26mph
Location:  8.73°N, 167.73°E
Report Text: PKWA 312000Z AUTO 08014G23KT 3SM RA SCT022 BKN034 BKN048 27/24 A2984 RMK AO2 T02720236
Loading
Personal Weather Stations






























Interactive Weather Map
Tropical Storm Tracking
New forecast layout! Learn more

10-Day Weather Forecast

Advertisements
Track Severe Weather on mobile